createdAt,value
2023-10-26T00:00:41.391Z,28.80
2023-10-26T00:03:08.960Z,23.05
2023-10-26T00:05:36.526Z,20.52
2023-10-26T00:08:03.983Z,15.23
2023-10-26T00:10:31.341Z,13.50
2023-10-26T00:12:58.705Z,12.30
2023-10-26T00:15:26.146Z,11.88
2023-10-26T00:17:53.647Z,12.27
2023-10-26T00:20:21.102Z,11.80
2023-10-26T00:22:48.444Z,11.98
2023-10-26T00:25:15.914Z,12.27
2023-10-26T00:27:43.230Z,11.57
2023-10-26T00:30:12.000Z,10.68
2023-10-26T00:32:40.247Z,11.55
2023-10-26T00:35:07.791Z,12.55
2023-10-26T00:37:35.290Z,12.00
2023-10-26T00:40:02.693Z,14.30
2023-10-26T00:42:30.109Z,13.18
2023-10-26T00:44:58.327Z,11.45
2023-10-26T00:47:27.242Z,11.48
2023-10-26T00:49:55.441Z,11.97
2023-10-26T00:52:23.612Z,11.85
2023-10-26T00:54:51.046Z,13.75
2023-10-26T00:57:19.516Z,13.93
2023-10-26T00:59:47.731Z,12.45
2023-10-26T01:02:15.864Z,12.63
2023-10-26T01:04:44.050Z,12.63
2023-10-26T01:07:11.817Z,12.10
2023-10-26T01:09:39.275Z,14.18
2023-10-26T01:12:06.892Z,13.75
2023-10-26T01:14:34.354Z,11.87
2023-10-26T01:17:02.447Z,12.60
2023-10-26T01:19:40.139Z,12.82
2023-10-26T01:22:07.713Z,13.40
2023-10-26T01:24:35.389Z,13.43
2023-10-26T01:27:02.759Z,13.10
2023-10-26T01:29:30.243Z,14.60
2023-10-26T01:31:57.712Z,14.00
2023-10-26T01:34:25.169Z,13.65
2023-10-26T01:36:52.944Z,15.02
2023-10-26T01:39:20.833Z,14.83
2023-10-26T01:41:48.655Z,15.60
2023-10-26T01:44:16.141Z,15.50
2023-10-26T01:46:43.518Z,16.02
2023-10-26T01:49:11.733Z,15.45
2023-10-26T01:51:40.659Z,14.77
2023-10-26T01:54:10.112Z,15.55
2023-10-26T01:56:38.877Z,15.98
2023-10-26T01:59:06.673Z,15.75
2023-10-26T02:01:34.100Z,15.23
2023-10-26T02:04:01.558Z,16.03
2023-10-26T02:06:29.164Z,15.95
2023-10-26T02:08:57.945Z,16.33
2023-10-26T02:11:25.343Z,15.57
2023-10-26T02:13:52.758Z,15.63
2023-10-26T02:16:21.460Z,15.73
2023-10-26T02:18:49.132Z,16.02
2023-10-26T02:21:16.754Z,17.30
2023-10-26T02:23:45.918Z,14.90
2023-10-26T02:26:13.319Z,16.33
2023-10-26T02:28:40.626Z,15.77
2023-10-26T02:31:08.011Z,15.82
2023-10-26T02:33:35.426Z,17.42
2023-10-26T02:36:05.873Z,16.23
2023-10-26T02:38:33.383Z,16.25
2023-10-26T02:41:05.037Z,15.40
2023-10-26T02:43:32.605Z,15.90
2023-10-26T02:46:06.459Z,16.73
2023-10-26T02:48:35.306Z,15.70
2023-10-26T02:51:03.196Z,16.58
2023-10-26T02:53:30.856Z,16.77
2023-10-26T02:55:58.235Z,17.60
2023-10-26T02:58:25.619Z,17.13
2023-10-26T03:00:55.313Z,15.70
2023-10-26T03:03:23.148Z,15.48
2023-10-26T03:05:50.567Z,14.73
2023-10-26T03:08:18.249Z,16.40
2023-10-26T03:10:45.781Z,14.68
2023-10-26T03:13:13.163Z,15.32
2023-10-26T03:15:40.551Z,16.05
2023-10-26T03:18:08.217Z,16.20
2023-10-26T03:20:36.081Z,14.90
2023-10-26T03:23:03.531Z,15.50
2023-10-26T03:25:30.914Z,15.43
2023-10-26T03:27:58.237Z,15.60
2023-10-26T03:30:25.678Z,16.30
2023-10-26T03:32:53.204Z,15.05
2023-10-26T03:35:20.727Z,15.48
2023-10-26T03:37:48.066Z,15.93
2023-10-26T03:40:15.959Z,15.02
2023-10-26T03:42:43.436Z,14.47
2023-10-26T03:45:11.352Z,14.38
2023-10-26T03:47:38.799Z,14.60
2023-10-26T03:50:06.529Z,14.65
2023-10-26T03:52:33.887Z,15.35
2023-10-26T03:55:01.228Z,14.87
2023-10-26T03:57:28.695Z,14.70
2023-10-26T03:59:56.050Z,14.30
2023-10-26T04:02:23.763Z,14.85
2023-10-26T04:04:51.792Z,15.05
2023-10-26T04:07:19.794Z,14.80
2023-10-26T04:09:47.146Z,15.85
2023-10-26T04:12:14.604Z,16.08
2023-10-26T04:14:42.251Z,15.50
2023-10-26T04:17:13.575Z,16.25
2023-10-26T04:19:40.912Z,16.00
2023-10-26T04:22:08.309Z,15.48
2023-10-26T04:24:35.921Z,15.32
2023-10-26T04:27:03.564Z,14.02
2023-10-26T04:29:31.868Z,14.80
2023-10-26T04:31:59.359Z,14.73
2023-10-26T04:34:28.662Z,16.75
2023-10-26T04:36:57.001Z,16.15
2023-10-26T04:39:24.473Z,15.52
2023-10-26T04:41:51.918Z,15.45
2023-10-26T04:44:19.885Z,15.20
2023-10-26T04:46:47.288Z,15.20
2023-10-26T04:49:14.665Z,15.88
2023-10-26T04:51:42.053Z,13.70
2023-10-26T04:54:09.464Z,14.38
2023-10-26T04:56:36.936Z,13.10
2023-10-26T04:59:04.308Z,15.43
2023-10-26T05:01:31.770Z,13.70
2023-10-26T05:03:59.150Z,14.98
2023-10-26T05:06:26.780Z,16.25
2023-10-26T05:08:54.281Z,14.77
2023-10-26T05:11:22.412Z,15.25
2023-10-26T05:13:53.532Z,15.32
2023-10-26T05:16:21.300Z,13.70
2023-10-26T05:18:48.821Z,14.48
2023-10-26T05:21:16.229Z,13.30
2023-10-26T05:23:45.037Z,13.00
2023-10-26T05:26:12.373Z,14.25
2023-10-26T05:28:39.821Z,12.50
2023-10-26T05:31:07.170Z,13.18
2023-10-26T05:33:34.951Z,13.00
2023-10-26T05:36:02.404Z,13.38
2023-10-26T05:38:29.920Z,13.88
2023-10-26T05:40:57.816Z,10.90
2023-10-26T05:43:25.191Z,12.45
2023-10-26T05:45:54.508Z,12.93
2023-10-26T05:48:24.457Z,12.30
2023-10-26T05:50:51.977Z,13.88
2023-10-26T05:53:19.272Z,14.15
2023-10-26T05:55:57.092Z,13.55
2023-10-26T05:58:24.432Z,13.57
2023-10-26T06:00:51.953Z,12.98
2023-10-26T06:03:19.406Z,15.65
2023-10-26T06:05:48.732Z,14.30
2023-10-26T06:08:16.181Z,12.73
2023-10-26T06:10:43.820Z,14.07
2023-10-26T06:13:11.917Z,14.82
2023-10-26T06:15:39.384Z,13.68
2023-10-26T06:18:06.952Z,13.10
2023-10-26T06:20:34.535Z,13.02
2023-10-26T06:23:01.939Z,11.70
2023-10-26T06:25:30.103Z,15.90
2023-10-26T06:27:57.855Z,17.52
2023-10-26T06:30:28.413Z,16.83
2023-10-26T06:32:55.973Z,19.75
2023-10-26T06:35:23.418Z,18.57
2023-10-26T06:37:50.757Z,19.23
2023-10-26T06:40:18.242Z,16.80
2023-10-26T06:42:45.583Z,18.38
2023-10-26T06:45:13.185Z,18.50
2023-10-26T06:47:40.647Z,19.37
2023-10-26T06:50:08.604Z,18.65
2023-10-26T06:52:36.013Z,19.85
2023-10-26T06:55:09.054Z,20.25
2023-10-26T06:57:45.750Z,17.85
2023-10-26T07:00:13.708Z,17.83
2023-10-26T07:02:41.620Z,17.60
2023-10-26T07:05:09.290Z,16.95
2023-10-26T07:07:37.616Z,16.23
2023-10-26T07:10:05.115Z,17.25
2023-10-26T07:12:32.617Z,15.30
2023-10-26T07:15:01.113Z,13.93
2023-10-26T07:17:28.978Z,14.27
2023-10-26T07:19:56.430Z,13.10
2023-10-26T07:22:23.795Z,13.27
2023-10-26T07:24:51.208Z,12.63
2023-10-26T07:27:18.707Z,13.35
2023-10-26T07:29:47.481Z,12.35
2023-10-26T07:32:14.877Z,11.57
2023-10-26T07:34:42.574Z,11.15
2023-10-26T07:37:10.223Z,11.67
2023-10-26T07:39:45.253Z,12.18
2023-10-26T07:42:14.775Z,10.98
2023-10-26T07:44:42.594Z,11.90
2023-10-26T07:47:10.569Z,11.63
2023-10-26T07:49:38.252Z,10.90
2023-10-26T07:52:06.323Z,10.82
2023-10-26T07:54:33.902Z,11.10
2023-10-26T07:57:01.295Z,11.30
2023-10-26T07:59:28.732Z,11.88
2023-10-26T08:01:56.282Z,11.83
2023-10-26T08:04:23.786Z,11.43
2023-10-26T08:06:51.210Z,11.48
2023-10-26T08:09:18.633Z,10.57
2023-10-26T08:11:46.029Z,11.25
2023-10-26T08:14:42.472Z,12.13
2023-10-26T08:17:01.012Z,10.05
2023-10-26T08:19:29.128Z,11.63
2023-10-26T08:21:56.570Z,10.48
2023-10-26T08:24:24.004Z,10.25
2023-10-26T08:26:52.611Z,9.90
2023-10-26T08:29:27.999Z,10.20
2023-10-26T08:31:56.388Z,10.45
2023-10-26T08:34:23.786Z,10.15
2023-10-26T08:37:07.970Z,9.85
2023-10-26T08:39:38.799Z,8.67
2023-10-26T08:42:06.365Z,9.20
2023-10-26T08:44:33.953Z,9.77
2023-10-26T08:47:03.963Z,10.07
2023-10-26T08:49:32.087Z,10.10
2023-10-26T08:52:00.208Z,9.00
2023-10-26T08:54:28.194Z,9.27
2023-10-26T08:56:56.477Z,9.43
2023-10-26T08:59:26.729Z,9.38
2023-10-26T09:01:54.266Z,8.93
2023-10-26T09:04:21.965Z,10.20
2023-10-26T09:06:50.540Z,9.65
2023-10-26T09:09:19.815Z,9.32
2023-10-26T09:11:49.331Z,8.63
2023-10-26T09:14:20.424Z,11.40
2023-10-26T09:16:48.475Z,9.30
2023-10-26T09:19:16.775Z,9.48
2023-10-26T09:21:53.724Z,9.55
2023-10-26T09:24:28.047Z,9.15
2023-10-26T09:26:56.331Z,10.23
2023-10-26T09:29:36.417Z,10.30
2023-10-26T09:32:04.355Z,10.65
2023-10-26T09:34:31.957Z,10.20
2023-10-26T09:37:06.342Z,11.07
2023-10-26T09:39:37.821Z,12.82
2023-10-26T09:42:07.810Z,13.83
2023-10-26T09:44:37.485Z,11.55
2023-10-26T09:47:05.531Z,10.90
2023-10-26T09:49:33.220Z,10.32
2023-10-26T09:52:00.597Z,11.10
2023-10-26T09:54:37.078Z,10.40
2023-10-26T09:57:22.644Z,10.65
2023-10-26T09:59:53.087Z,10.05
2023-10-26T10:02:21.076Z,10.88
2023-10-26T10:04:50.074Z,10.43
2023-10-26T10:07:21.030Z,10.37
2023-10-26T10:10:06.934Z,11.38
2023-10-26T10:12:35.473Z,10.35
2023-10-26T10:15:29.290Z,10.63
2023-10-26T10:17:52.443Z,10.45
2023-10-26T10:20:19.869Z,10.37
2023-10-26T10:22:47.206Z,10.05
2023-10-26T10:25:15.335Z,10.63
2023-10-26T10:28:03.730Z,9.77
2023-10-26T10:30:48.422Z,10.80
2023-10-26T10:33:28.850Z,9.10
2023-10-26T10:36:03.571Z,10.25
2023-10-26T10:38:31.597Z,10.65
2023-10-26T10:41:02.932Z,10.05
2023-10-26T10:43:33.497Z,10.50
2023-10-26T10:46:20.360Z,9.57
2023-10-26T10:49:04.626Z,9.50
2023-10-26T10:51:36.293Z,10.00
2023-10-26T10:54:22.393Z,9.52
2023-10-26T10:56:57.987Z,10.00
2023-10-26T10:59:30.974Z,9.37
2023-10-26T11:02:08.981Z,9.77
2023-10-26T11:04:47.990Z,8.88
2023-10-26T11:07:28.378Z,9.65
2023-10-26T11:09:58.948Z,9.93
2023-10-26T11:12:26.689Z,8.80
2023-10-26T11:14:54.829Z,9.57
2023-10-26T11:17:22.887Z,9.68
2023-10-26T11:19:50.740Z,10.07
2023-10-26T11:22:19.844Z,9.77
2023-10-26T11:24:47.495Z,10.70
2023-10-26T11:27:14.982Z,9.23
2023-10-26T11:29:42.890Z,9.68
2023-10-26T11:32:25.409Z,9.65
2023-10-26T11:35:12.058Z,9.18
2023-10-26T11:37:41.229Z,8.70
2023-10-26T11:40:10.032Z,8.70
2023-10-26T11:42:47.731Z,10.32
2023-10-26T11:45:18.965Z,10.35
2023-10-26T11:47:52.303Z,10.10
2023-10-26T11:50:26.741Z,10.53
2023-10-26T11:52:55.529Z,9.40
2023-10-26T11:55:24.100Z,12.60
2023-10-26T11:57:51.961Z,10.23
2023-10-26T12:00:20.500Z,11.55
2023-10-26T12:02:48.157Z,10.80
2023-10-26T12:05:19.598Z,10.30
2023-10-26T12:07:47.707Z,10.75
2023-10-26T12:10:16.425Z,10.98
2023-10-26T12:12:43.856Z,11.15
2023-10-26T12:15:11.800Z,11.43
2023-10-26T12:17:39.252Z,10.23
2023-10-26T12:20:07.035Z,10.63
2023-10-26T12:22:34.515Z,9.85
2023-10-26T12:25:07.779Z,10.02
2023-10-26T12:28:21.187Z,9.60
2023-10-26T12:30:22.993Z,9.32
2023-10-26T12:32:50.320Z,10.55
2023-10-26T12:35:17.743Z,9.15
2023-10-26T12:37:45.154Z,10.52
2023-10-26T12:40:12.703Z,9.60
2023-10-26T12:42:40.692Z,9.40
2023-10-26T12:45:08.329Z,9.77
2023-10-26T12:47:35.707Z,10.40
2023-10-26T12:50:03.116Z,10.73
2023-10-26T12:52:31.739Z,9.57
2023-10-26T12:54:59.290Z,10.35
2023-10-26T12:57:26.678Z,11.52
2023-10-26T12:59:54.189Z,10.90
2023-10-26T13:02:21.645Z,11.57
2023-10-26T13:04:49.068Z,11.27
2023-10-26T13:07:16.620Z,10.20
2023-10-26T13:09:45.686Z,10.48
2023-10-26T13:12:13.231Z,9.98
2023-10-26T13:14:40.623Z,9.75
2023-10-26T13:17:07.979Z,9.77
2023-10-26T13:19:36.039Z,10.65
2023-10-26T13:22:03.483Z,10.18
2023-10-26T13:24:32.055Z,11.07
2023-10-26T13:26:59.391Z,11.00
2023-10-26T13:29:26.846Z,10.87
2023-10-26T13:31:54.296Z,9.63
2023-10-26T13:34:21.665Z,12.07
2023-10-26T13:36:49.077Z,11.13
2023-10-26T13:39:16.477Z,12.88
2023-10-26T13:41:43.865Z,12.00
2023-10-26T13:44:11.220Z,12.65
2023-10-26T13:46:39.257Z,12.38
2023-10-26T13:49:06.959Z,11.07
2023-10-26T13:51:34.381Z,11.57
2023-10-26T13:54:01.711Z,12.00
2023-10-26T13:56:29.096Z,12.20
2023-10-26T13:58:56.522Z,13.48
2023-10-26T14:01:24.056Z,11.98
2023-10-26T14:03:51.517Z,11.90
2023-10-26T14:06:19.115Z,13.20
2023-10-26T14:08:46.480Z,13.15
2023-10-26T14:11:17.160Z,14.52
2023-10-26T14:13:44.563Z,12.95
2023-10-26T14:16:12.330Z,12.95
2023-10-26T14:18:39.857Z,12.50
2023-10-26T14:21:07.323Z,13.07
2023-10-26T14:23:34.725Z,13.38
2023-10-26T14:26:02.606Z,12.30
2023-10-26T14:28:30.078Z,12.05
2023-10-26T14:30:57.893Z,13.27
2023-10-26T14:33:25.465Z,12.55
2023-10-26T14:35:53.273Z,12.40
2023-10-26T14:38:20.924Z,12.90
2023-10-26T14:40:55.951Z,12.40
2023-10-26T14:43:23.325Z,12.53
2023-10-26T14:45:50.706Z,12.77
2023-10-26T14:48:18.150Z,12.63
2023-10-26T14:50:46.487Z,12.75
2023-10-26T14:53:14.648Z,15.95
2023-10-26T14:55:42.725Z,13.13
2023-10-26T14:58:10.178Z,12.63
2023-10-26T15:00:39.587Z,13.43
2023-10-26T15:03:07.742Z,12.25
2023-10-26T15:05:35.757Z,13.05
2023-10-26T15:08:03.534Z,13.10
2023-10-26T15:10:34.919Z,13.02
2023-10-26T15:13:04.773Z,13.43
2023-10-26T15:15:32.560Z,12.85
2023-10-26T15:18:00.077Z,13.30
2023-10-26T15:20:27.527Z,12.87
2023-10-26T15:22:54.999Z,12.95
2023-10-26T15:25:22.571Z,12.43
2023-10-26T15:27:49.960Z,12.73
2023-10-26T15:30:17.472Z,12.38
2023-10-26T15:32:45.010Z,11.80
2023-10-26T15:35:12.400Z,12.52
2023-10-26T15:37:39.867Z,14.02
2023-10-26T15:40:07.518Z,11.60
2023-10-26T15:42:34.947Z,10.90
2023-10-26T15:45:02.398Z,11.53
2023-10-26T15:47:29.768Z,10.10
2023-10-26T15:49:59.385Z,11.13
2023-10-26T15:52:27.047Z,11.38
2023-10-26T15:54:54.401Z,10.80
2023-10-26T15:57:22.349Z,10.97
2023-10-26T15:59:49.984Z,10.82
2023-10-26T16:02:17.389Z,11.10
2023-10-26T16:04:45.018Z,12.43
2023-10-26T16:07:12.625Z,11.98
2023-10-26T16:09:40.006Z,11.07
2023-10-26T16:12:09.357Z,12.93
2023-10-26T16:14:36.825Z,14.77
2023-10-26T16:17:09.252Z,12.65
2023-10-26T16:19:36.692Z,11.43
2023-10-26T16:22:04.725Z,12.90
2023-10-26T16:24:32.198Z,12.35
2023-10-26T16:26:59.662Z,12.80
2023-10-26T16:29:27.093Z,12.13
2023-10-26T16:31:54.397Z,11.23
2023-10-26T16:34:21.751Z,11.47
2023-10-26T16:36:49.193Z,12.38
2023-10-26T16:39:16.600Z,12.52
2023-10-26T16:41:44.004Z,10.65
2023-10-26T16:44:11.403Z,11.90
2023-10-26T16:46:38.826Z,12.83
2023-10-26T16:49:06.294Z,11.55
2023-10-26T16:51:33.743Z,12.23
2023-10-26T16:54:01.356Z,11.50
2023-10-26T16:56:30.232Z,12.02
2023-10-26T16:58:57.741Z,11.83
2023-10-26T17:01:25.191Z,12.50
2023-10-26T17:03:52.621Z,12.40
2023-10-26T17:06:19.982Z,11.98
2023-10-26T17:08:48.644Z,14.02
2023-10-26T17:11:16.445Z,12.27
2023-10-26T17:13:43.805Z,12.23
2023-10-26T17:16:11.243Z,13.68
2023-10-26T17:18:38.660Z,12.32
2023-10-26T17:21:06.237Z,12.70
2023-10-26T17:23:33.707Z,13.03
2023-10-26T17:26:01.133Z,13.00
2023-10-26T17:28:28.492Z,12.88
2023-10-26T17:31:05.466Z,16.70
2023-10-26T17:33:32.840Z,19.40
2023-10-26T17:36:00.260Z,20.57
2023-10-26T17:38:27.889Z,15.45
2023-10-26T17:40:55.276Z,19.88
2023-10-26T17:43:22.680Z,14.23
2023-10-26T17:45:56.735Z,13.07
2023-10-26T17:48:24.255Z,13.80
2023-10-26T17:50:51.612Z,13.05
2023-10-26T17:53:20.347Z,13.07
2023-10-26T17:55:48.683Z,12.65
2023-10-26T17:58:16.087Z,12.80
2023-10-26T18:00:43.462Z,12.73
2023-10-26T18:03:10.815Z,12.73
2023-10-26T18:05:38.142Z,12.25
2023-10-26T18:08:05.748Z,11.88
2023-10-26T18:10:33.212Z,13.00
2023-10-26T18:13:00.581Z,12.47
2023-10-26T18:15:28.063Z,12.63
2023-10-26T18:17:55.460Z,13.93
2023-10-26T18:20:22.844Z,14.90
2023-10-26T18:22:50.190Z,19.20
2023-10-26T18:25:17.571Z,15.07
2023-10-26T18:27:45.004Z,13.85
2023-10-26T18:30:12.610Z,13.88
2023-10-26T18:32:40.212Z,13.80
2023-10-26T18:35:07.886Z,17.27
2023-10-26T18:37:36.823Z,14.83
2023-10-26T18:40:06.999Z,13.57
2023-10-26T18:42:34.482Z,13.55
2023-10-26T18:45:01.840Z,14.63
2023-10-26T18:47:29.511Z,18.65
2023-10-26T18:49:56.915Z,19.60
2023-10-26T18:52:25.484Z,17.77
2023-10-26T18:54:52.867Z,13.82
2023-10-26T18:57:20.188Z,14.15
2023-10-26T18:59:47.596Z,14.23
2023-10-26T19:02:15.069Z,14.33
2023-10-26T19:04:42.512Z,13.50
2023-10-26T19:07:12.123Z,13.50
2023-10-26T19:09:39.649Z,14.90
2023-10-26T19:12:07.183Z,18.08
2023-10-26T19:14:34.685Z,16.37
2023-10-26T19:17:02.124Z,15.95
2023-10-26T19:19:29.555Z,15.80
2023-10-26T19:21:56.987Z,14.98
2023-10-26T19:24:25.261Z,16.73
2023-10-26T19:26:52.623Z,15.27
2023-10-26T19:29:19.976Z,15.13
2023-10-26T19:31:47.353Z,15.90
2023-10-26T19:34:14.793Z,14.63
2023-10-26T19:36:42.222Z,15.63
2023-10-26T19:39:09.820Z,15.30
2023-10-26T19:41:37.291Z,16.15
2023-10-26T19:44:04.810Z,16.75
2023-10-26T19:46:33.789Z,16.00
2023-10-26T19:49:01.422Z,16.42
2023-10-26T19:51:28.916Z,16.47
2023-10-26T19:53:56.313Z,16.35
2023-10-26T19:56:23.688Z,17.75
2023-10-26T19:58:51.169Z,18.15
2023-10-26T20:01:18.788Z,18.52
2023-10-26T20:03:47.009Z,16.60
2023-10-26T20:06:14.459Z,18.00
2023-10-26T20:08:41.856Z,18.58
2023-10-26T20:11:12.307Z,18.17
2023-10-26T20:13:39.746Z,18.38
2023-10-26T20:16:07.315Z,16.63
2023-10-26T20:18:45.954Z,18.88
2023-10-26T20:21:13.324Z,19.02
2023-10-26T20:23:40.770Z,18.65
2023-10-26T20:26:08.311Z,18.60
2023-10-26T20:28:35.901Z,18.60
2023-10-26T20:31:03.338Z,18.23
2023-10-26T20:33:30.823Z,19.35
2023-10-26T20:35:58.308Z,18.60
2023-10-26T20:38:25.681Z,19.85
2023-10-26T20:40:52.970Z,20.03
2023-10-26T20:43:20.385Z,19.20
2023-10-26T20:45:47.789Z,17.95
2023-10-26T20:48:15.202Z,19.35
2023-10-26T20:50:42.663Z,20.33
2023-10-26T20:53:10.165Z,18.73
2023-10-26T20:55:37.968Z,19.20
2023-10-26T20:58:05.393Z,20.13
2023-10-26T21:00:32.739Z,19.30
2023-10-26T21:03:00.181Z,20.27
2023-10-26T21:05:27.797Z,20.47
2023-10-26T21:07:55.708Z,20.48
2023-10-26T21:10:23.247Z,20.10
2023-10-26T21:12:50.927Z,19.90
2023-10-26T21:15:18.758Z,20.48
2023-10-26T21:17:46.183Z,20.57
2023-10-26T21:20:14.124Z,21.38
2023-10-26T21:22:41.452Z,20.70
2023-10-26T21:25:09.200Z,20.38
2023-10-26T21:27:37.100Z,20.92
2023-10-26T21:30:06.553Z,20.33
2023-10-26T21:32:34.058Z,21.67
2023-10-26T21:35:02.131Z,21.45
2023-10-26T21:37:29.535Z,20.15
2023-10-26T21:39:57.235Z,20.88
2023-10-26T21:42:26.970Z,20.53
2023-10-26T21:44:54.596Z,21.02
2023-10-26T21:47:21.953Z,21.05
2023-10-26T21:49:49.370Z,20.17
2023-10-26T21:52:16.840Z,22.08
2023-10-26T21:54:44.298Z,20.50
2023-10-26T21:57:11.697Z,22.85
2023-10-26T21:59:39.038Z,20.92
2023-10-26T22:02:08.875Z,21.55
2023-10-26T22:04:36.907Z,21.65
2023-10-26T22:07:04.448Z,21.47
2023-10-26T22:09:35.940Z,22.08
2023-10-26T22:12:09.036Z,22.02
2023-10-26T22:14:36.481Z,23.08
2023-10-26T22:17:04.198Z,22.10
2023-10-26T22:19:31.666Z,21.53
2023-10-26T22:21:59.102Z,21.90
2023-10-26T22:24:26.542Z,22.92
2023-10-26T22:26:53.905Z,21.98
2023-10-26T22:29:30.287Z,23.08
2023-10-26T22:31:58.981Z,22.40
2023-10-26T22:34:26.523Z,22.23
2023-10-26T22:36:53.969Z,23.40
2023-10-26T22:39:21.387Z,22.75
2023-10-26T22:41:49.149Z,22.50
2023-10-26T22:44:16.539Z,22.87
2023-10-26T22:46:43.884Z,22.30
2023-10-26T22:49:11.356Z,22.75
2023-10-26T22:51:38.870Z,23.17
2023-10-26T22:54:06.311Z,23.30
2023-10-26T22:56:33.693Z,23.73
2023-10-26T22:59:01.061Z,22.70
2023-10-26T23:01:28.437Z,22.48
2023-10-26T23:03:55.916Z,22.52
2023-10-26T23:06:23.953Z,22.85
2023-10-26T23:08:51.400Z,21.77
2023-10-26T23:11:18.768Z,23.33
2023-10-26T23:13:46.062Z,23.95
2023-10-26T23:16:13.519Z,22.52
2023-10-26T23:18:40.988Z,22.05
2023-10-26T23:21:08.396Z,22.53
2023-10-26T23:23:39.505Z,23.00
2023-10-26T23:26:09.900Z,23.73
2023-10-26T23:28:37.484Z,21.65
2023-10-26T23:31:11.653Z,22.88
2023-10-26T23:33:39.536Z,21.90
2023-10-26T23:36:07.446Z,23.20
2023-10-26T23:38:35.211Z,23.45
2023-10-26T23:41:02.600Z,22.33
2023-10-26T23:43:30.051Z,22.20
2023-10-26T23:45:59.037Z,22.03
2023-10-26T23:48:26.722Z,23.45
2023-10-26T23:50:54.391Z,22.48
2023-10-26T23:53:22.191Z,21.73
2023-10-26T23:55:50.260Z,22.92
2023-10-26T23:58:17.678Z,23.20
